createdAt,value
2022-09-22T00:01:11.708Z,99.90
2022-09-22T00:03:41.004Z,99.90
2022-09-22T00:06:14.265Z,99.90
2022-09-22T00:08:46.298Z,99.90
2022-09-22T00:11:22.765Z,99.90
2022-09-22T00:14:01.402Z,99.90
2022-09-22T00:16:32.078Z,99.90
2022-09-22T00:18:59.169Z,99.90
2022-09-22T00:21:31.163Z,99.90
2022-09-22T00:23:58.012Z,99.90
2022-09-22T00:26:25.153Z,99.90
2022-09-22T00:28:53.144Z,99.90
2022-09-22T00:31:24.708Z,99.90
2022-09-22T00:33:53.371Z,99.90
2022-09-22T00:36:22.298Z,99.90
2022-09-22T00:38:52.159Z,99.90
2022-09-22T00:41:27.747Z,99.90
2022-09-22T00:44:22.381Z,99.90
2022-09-22T00:47:16.556Z,99.90
2022-09-22T00:49:46.955Z,99.90
2022-09-22T00:52:19.000Z,99.90
2022-09-22T00:54:46.556Z,99.90
2022-09-22T00:57:30.014Z,99.90
2022-09-22T00:59:57.552Z,99.90
2022-09-22T01:02:24.904Z,99.90
2022-09-22T01:04:52.640Z,99.90
2022-09-22T01:07:22.652Z,99.90
2022-09-22T01:09:49.649Z,99.90
2022-09-22T01:12:16.467Z,99.90
2022-09-22T01:15:13.619Z,99.90
2022-09-22T01:18:08.507Z,99.90
2022-09-22T01:20:50.485Z,99.90
2022-09-22T01:23:51.275Z,99.90
2022-09-22T01:26:24.178Z,99.90
2022-09-22T01:29:37.885Z,99.90
2022-09-22T01:32:13.459Z,99.90
2022-09-22T01:34:58.836Z,99.90
2022-09-22T01:37:32.827Z,99.90
2022-09-22T01:40:32.945Z,99.90
2022-09-22T01:43:30.402Z,99.90
2022-09-22T01:45:59.428Z,99.90
2022-09-22T01:48:30.859Z,99.90
2022-09-22T01:51:08.571Z,99.90
2022-09-22T01:53:42.213Z,99.90
2022-09-22T01:56:12.893Z,99.90
2022-09-22T01:58:47.053Z,99.90
2022-09-22T02:01:19.731Z,99.90
2022-09-22T02:03:54.543Z,99.90
2022-09-22T02:06:28.969Z,99.90
2022-09-22T02:09:01.258Z,99.90
2022-09-22T02:11:28.092Z,99.90
2022-09-22T02:13:55.243Z,99.90
2022-09-22T02:16:23.956Z,99.90
2022-09-22T02:19:20.236Z,99.90
2022-09-22T02:21:48.382Z,99.90
2022-09-22T02:24:37.657Z,99.90
2022-09-22T02:27:09.618Z,99.90
2022-09-22T02:29:41.030Z,99.90
2022-09-22T02:32:11.594Z,99.90
2022-09-22T02:34:38.722Z,99.90
2022-09-22T02:37:36.828Z,99.90
2022-09-22T02:40:09.535Z,99.90
2022-09-22T02:42:48.717Z,99.90
2022-09-22T02:45:21.320Z,99.90
2022-09-22T02:47:57.177Z,99.90
2022-09-22T02:50:27.422Z,99.90
2022-09-22T02:53:01.363Z,99.90
2022-09-22T02:55:28.484Z,99.90
2022-09-22T02:57:55.564Z,99.90
2022-09-22T03:00:22.591Z,99.90
2022-09-22T03:02:49.438Z,99.90
2022-09-22T03:05:16.398Z,99.90
2022-09-22T03:07:43.228Z,99.90
2022-09-22T03:10:11.084Z,99.90
2022-09-22T03:13:02.582Z,99.90
2022-09-22T03:15:29.669Z,99.90
2022-09-22T03:17:56.605Z,99.90
2022-09-22T03:20:23.593Z,99.90
2022-09-22T03:22:50.390Z,99.90
2022-09-22T03:25:17.276Z,99.90
2022-09-22T03:27:44.056Z,99.90
2022-09-22T03:30:11.422Z,99.90
2022-09-22T03:32:38.612Z,99.90
2022-09-22T03:35:06.679Z,99.90
2022-09-22T03:37:34.610Z,99.90
2022-09-22T03:40:02.514Z,99.90
2022-09-22T03:42:29.328Z,99.90
2022-09-22T03:44:56.086Z,99.90
2022-09-22T03:47:22.900Z,99.90
2022-09-22T03:49:49.725Z,99.90
2022-09-22T03:52:16.682Z,99.90
2022-09-22T03:54:43.464Z,99.90
2022-09-22T03:57:10.217Z,99.90
2022-09-22T03:59:36.991Z,99.90
2022-09-22T04:02:04.619Z,99.90
2022-09-22T04:04:32.642Z,99.90
2022-09-22T04:07:03.417Z,99.90
2022-09-22T04:09:33.653Z,99.90
2022-09-22T04:12:00.980Z,99.90
2022-09-22T04:14:27.941Z,99.90
2022-09-22T04:16:54.869Z,99.90
2022-09-22T04:19:22.866Z,99.90
2022-09-22T04:21:54.684Z,99.90
2022-09-22T04:24:25.059Z,99.90
2022-09-22T04:27:15.549Z,99.90
2022-09-22T04:29:38.776Z,99.90
2022-09-22T04:32:05.885Z,99.90
2022-09-22T04:34:32.660Z,99.90
2022-09-22T04:36:59.444Z,99.90
2022-09-22T04:39:28.642Z,99.90
2022-09-22T04:41:55.807Z,99.90
2022-09-22T04:44:22.742Z,99.90
2022-09-22T04:46:50.271Z,99.90
2022-09-22T04:49:18.200Z,99.90
2022-09-22T04:51:45.166Z,99.90
2022-09-22T04:54:12.038Z,99.90
2022-09-22T04:56:38.859Z,99.90
2022-09-22T04:59:05.689Z,99.90
2022-09-22T05:01:32.736Z,99.90
2022-09-22T05:03:59.851Z,99.90
2022-09-22T05:06:26.665Z,99.90
2022-09-22T05:08:53.618Z,99.90
2022-09-22T05:11:23.687Z,99.90
2022-09-22T05:13:51.391Z,99.90
2022-09-22T05:16:18.512Z,99.90
2022-09-22T05:18:45.411Z,99.90
2022-09-22T05:21:12.366Z,99.90
2022-09-22T05:23:39.835Z,99.90
2022-09-22T05:26:06.932Z,99.90
2022-09-22T05:28:33.859Z,99.90
2022-09-22T05:31:01.925Z,99.90
2022-09-22T05:33:28.715Z,99.90
2022-09-22T05:35:55.644Z,99.90
2022-09-22T05:38:22.641Z,99.90
2022-09-22T05:40:49.708Z,99.90
2022-09-22T05:43:16.695Z,99.90
2022-09-22T05:45:47.092Z,99.90
2022-09-22T05:48:13.982Z,99.90
2022-09-22T05:50:41.093Z,99.90
2022-09-22T05:53:10.326Z,99.90
2022-09-22T05:55:39.640Z,99.90
2022-09-22T05:58:06.536Z,99.90
2022-09-22T06:00:33.498Z,99.90
2022-09-22T06:03:00.388Z,99.90
2022-09-22T06:05:27.385Z,99.90
2022-09-22T06:08:06.567Z,99.90
2022-09-22T06:21:56.988Z,99.90
2022-09-22T06:24:24.437Z,99.90
2022-09-22T06:27:31.610Z,99.90
2022-09-22T06:31:05.247Z,99.90
2022-09-22T06:33:38.446Z,98.20
2022-09-22T06:36:45.564Z,96.50
2022-09-22T06:39:37.841Z,97.70
2022-09-22T06:42:12.498Z,93.80
2022-09-22T06:45:02.705Z,89.70
2022-09-22T06:47:33.131Z,90.60
2022-09-22T06:50:45.984Z,84.50
2022-09-22T06:53:13.070Z,80.40
2022-09-22T06:56:12.114Z,79.20
2022-09-22T07:02:16.841Z,74.30
2022-09-22T07:04:48.158Z,75.70
2022-09-22T07:07:15.244Z,77.00
2022-09-22T07:09:42.238Z,72.20
2022-09-22T07:12:09.376Z,69.00
2022-09-22T07:15:03.320Z,67.10
2022-09-22T07:17:34.172Z,65.50
2022-09-22T07:20:05.078Z,71.00
2022-09-22T07:22:39.399Z,72.10
2022-09-22T07:25:08.809Z,67.20
2022-09-22T07:27:36.173Z,67.80
2022-09-22T07:30:06.867Z,66.30
2022-09-22T07:32:35.261Z,63.20
2022-09-22T07:35:08.878Z,60.50
2022-09-22T07:37:36.033Z,59.30
2022-09-22T07:40:03.609Z,61.70
2022-09-22T07:42:33.713Z,60.00
2022-09-22T07:45:15.811Z,59.10
2022-09-22T07:48:28.057Z,60.10
2022-09-22T07:54:04.589Z,59.10
2022-09-22T07:56:31.533Z,58.60
2022-09-22T07:59:10.249Z,58.30
2022-09-22T08:01:44.570Z,58.20
2022-09-22T08:04:15.941Z,56.10
2022-09-22T08:06:44.681Z,56.20
2022-09-22T08:09:13.188Z,55.00
2022-09-22T08:11:40.981Z,55.20
2022-09-22T08:14:11.970Z,54.00
2022-09-22T08:16:44.187Z,54.00
2022-09-22T08:22:20.445Z,54.00
2022-09-22T08:24:50.521Z,53.10
2022-09-22T08:27:17.473Z,53.30
2022-09-22T08:29:44.492Z,53.40
2022-09-22T08:32:11.414Z,53.40
2022-09-22T08:34:38.265Z,52.60
2022-09-22T08:37:05.229Z,51.60
2022-09-22T08:39:32.122Z,51.10
2022-09-22T08:42:18.862Z,49.80
2022-09-22T08:45:15.735Z,49.80
2022-09-22T08:48:04.965Z,50.40
2022-09-22T08:50:58.735Z,51.50
2022-09-22T08:53:32.392Z,49.60
2022-09-22T08:56:28.463Z,49.30
2022-09-22T08:59:08.740Z,49.50
2022-09-22T09:01:42.602Z,49.20
2022-09-22T09:04:47.201Z,49.90
2022-09-22T09:07:29.419Z,49.10
2022-09-22T09:09:56.948Z,49.10
2022-09-22T09:12:39.447Z,47.90
2022-09-22T09:15:56.602Z,47.20
2022-09-22T09:18:34.337Z,48.90
2022-09-22T09:21:05.774Z,48.90
2022-09-22T09:26:35.639Z,47.60
2022-09-22T09:29:10.652Z,46.40
2022-09-22T09:31:44.379Z,46.60
2022-09-22T09:34:17.973Z,46.70
2022-09-22T09:37:07.911Z,46.10
2022-09-22T09:39:41.352Z,45.70
2022-09-22T09:42:28.417Z,46.80
2022-09-22T09:44:57.735Z,46.10
2022-09-22T09:47:32.611Z,46.30
2022-09-22T09:49:59.909Z,46.10
2022-09-22T09:52:28.282Z,45.80
2022-09-22T09:54:55.337Z,45.30
2022-09-22T09:57:28.104Z,45.40
2022-09-22T10:00:32.155Z,46.00
2022-09-22T10:03:32.579Z,45.90
2022-09-22T10:06:08.820Z,44.00
2022-09-22T10:08:44.840Z,44.10
2022-09-22T10:11:13.939Z,44.60
2022-09-22T10:13:42.629Z,43.80
2022-09-22T10:16:28.464Z,45.60
2022-09-22T10:19:27.539Z,44.50
2022-09-22T10:22:23.468Z,44.70
2022-09-22T10:25:20.996Z,44.20
2022-09-22T10:28:02.447Z,45.50
2022-09-22T10:30:33.086Z,44.80
2022-09-22T10:33:25.617Z,44.70
2022-09-22T10:36:12.140Z,43.10
2022-09-22T10:38:45.189Z,44.10
2022-09-22T10:41:21.653Z,45.60
2022-09-22T10:44:03.100Z,44.00
2022-09-22T10:47:01.683Z,44.60
2022-09-22T10:49:48.098Z,44.40
2022-09-22T10:52:28.620Z,44.10
2022-09-22T10:55:14.340Z,43.80
2022-09-22T10:58:04.640Z,43.90
2022-09-22T11:00:39.863Z,42.20
2022-09-22T11:03:48.377Z,43.00
2022-09-22T11:07:10.838Z,43.80
2022-09-22T11:10:22.259Z,44.10
2022-09-22T11:13:12.697Z,42.70
2022-09-22T11:15:59.265Z,41.20
2022-09-22T11:18:46.208Z,41.50
2022-09-22T11:21:19.485Z,40.70
2022-09-22T11:24:30.672Z,38.50
2022-09-22T11:27:04.072Z,39.40
2022-09-22T11:29:52.259Z,40.50
2022-09-22T11:32:55.337Z,40.50
2022-09-22T11:36:05.082Z,40.40
2022-09-22T11:38:54.750Z,40.80
2022-09-22T11:41:44.187Z,40.00
2022-09-22T11:44:36.172Z,41.40
2022-09-22T11:47:29.722Z,42.70
2022-09-22T11:50:30.036Z,41.70
2022-09-22T11:53:15.803Z,41.70
2022-09-22T11:56:21.949Z,40.80
2022-09-22T11:58:55.953Z,39.90
2022-09-22T12:01:30.138Z,40.50
2022-09-22T12:04:21.982Z,38.10
2022-09-22T12:06:51.895Z,37.20
2022-09-22T12:09:30.545Z,36.60
2022-09-22T12:12:02.243Z,37.50
2022-09-22T12:14:29.835Z,38.00
2022-09-22T12:17:00.106Z,38.60
2022-09-22T12:19:33.279Z,39.10
2022-09-22T12:22:13.211Z,38.90
2022-09-22T12:24:45.057Z,39.60
2022-09-22T12:27:21.010Z,39.80
2022-09-22T12:30:02.418Z,40.00
2022-09-22T12:32:43.030Z,38.80
2022-09-22T12:35:28.797Z,39.40
2022-09-22T12:38:02.529Z,37.80
2022-09-22T12:40:41.950Z,39.70
2022-09-22T12:43:18.247Z,40.00
2022-09-22T12:45:45.863Z,38.80
2022-09-22T12:48:19.750Z,37.80
2022-09-22T12:50:47.217Z,37.60
2022-09-22T12:53:23.877Z,37.00
2022-09-22T12:56:00.444Z,37.80
2022-09-22T12:58:30.443Z,38.80
2022-09-22T13:01:32.821Z,37.60
2022-09-22T13:04:11.862Z,36.50
2022-09-22T13:06:38.687Z,37.00
2022-09-22T13:09:05.441Z,37.40
2022-09-22T13:12:10.327Z,38.10
2022-09-22T13:14:59.183Z,36.30
2022-09-22T13:17:55.457Z,35.40
2022-09-22T13:20:31.765Z,36.30
2022-09-22T13:23:16.876Z,37.20
2022-09-22T13:25:44.279Z,38.30
2022-09-22T13:28:17.655Z,37.40
2022-09-22T13:30:46.371Z,37.10
2022-09-22T13:33:26.990Z,36.20
2022-09-22T13:36:02.781Z,35.80
2022-09-22T13:38:31.585Z,37.30
2022-09-22T13:40:58.547Z,38.00
2022-09-22T13:43:32.427Z,37.50
2022-09-22T13:46:01.849Z,38.30
2022-09-22T13:48:34.208Z,37.20
2022-09-22T13:51:05.544Z,37.60
2022-09-22T13:53:32.773Z,37.40
2022-09-22T13:56:00.080Z,37.30
2022-09-22T13:58:40.639Z,38.00
2022-09-22T14:01:19.922Z,38.00
2022-09-22T14:03:48.180Z,37.40
2022-09-22T14:06:26.047Z,36.50
2022-09-22T14:08:54.021Z,36.50
2022-09-22T14:11:39.342Z,36.40
2022-09-22T14:14:07.731Z,38.00
2022-09-22T14:16:49.107Z,37.80
2022-09-22T14:19:29.303Z,37.70
2022-09-22T14:22:02.037Z,37.60
2022-09-22T14:24:31.610Z,37.90
2022-09-22T14:27:05.247Z,37.40
2022-09-22T14:29:35.486Z,38.40
2022-09-22T14:32:18.618Z,38.10
2022-09-22T14:34:51.423Z,38.20
2022-09-22T14:37:41.801Z,38.30
2022-09-22T14:40:25.290Z,38.30
2022-09-22T14:43:04.212Z,38.40
2022-09-22T14:45:32.710Z,38.70
2022-09-22T14:48:20.658Z,38.50
2022-09-22T14:50:58.111Z,38.70
2022-09-22T14:53:32.615Z,39.60
2022-09-22T14:56:33.777Z,39.10
2022-09-22T14:59:27.863Z,38.70
2022-09-22T15:02:15.503Z,39.20
2022-09-22T15:04:52.416Z,39.40
2022-09-22T15:07:29.263Z,39.10
2022-09-22T15:10:21.592Z,39.00
2022-09-22T15:12:49.699Z,39.10
2022-09-22T15:15:29.264Z,38.30
2022-09-22T15:18:13.418Z,38.80
2022-09-22T15:20:44.687Z,38.70
2022-09-22T15:23:15.943Z,38.90
2022-09-22T15:25:44.077Z,38.20
2022-09-22T15:32:15.809Z,38.70
2022-09-22T15:35:07.437Z,38.50
2022-09-22T15:37:39.216Z,37.60
2022-09-22T15:40:19.652Z,38.20
2022-09-22T15:43:11.660Z,38.20
2022-09-22T15:45:56.789Z,38.40
2022-09-22T15:49:12.608Z,38.30
2022-09-22T15:51:51.904Z,38.00
2022-09-22T15:57:14.935Z,38.50
2022-09-22T15:59:43.021Z,39.30
2022-09-22T16:02:11.881Z,39.40
2022-09-22T16:04:53.068Z,40.40
2022-09-22T16:10:51.478Z,40.80
2022-09-22T16:14:36.968Z,40.70
2022-09-22T17:03:11.209Z,51.10
2022-09-22T17:25:50.291Z,57.90
2022-09-22T17:28:34.082Z,58.50
2022-09-22T17:31:04.778Z,59.30
2022-09-22T17:33:32.169Z,59.70
2022-09-22T17:36:05.475Z,61.00
2022-09-22T17:38:36.145Z,61.70
2022-09-22T17:41:10.202Z,62.50
2022-09-22T17:43:40.083Z,63.60
2022-09-22T17:46:07.660Z,64.60
2022-09-22T17:48:53.359Z,65.50
2022-09-22T17:51:50.470Z,66.30
2022-09-22T17:54:37.476Z,67.00
2022-09-22T17:57:05.467Z,68.10
2022-09-22T17:59:33.722Z,70.30
2022-09-22T18:02:01.074Z,70.50
2022-09-22T18:04:31.441Z,72.20
2022-09-22T18:06:59.057Z,73.30
2022-09-22T18:09:25.841Z,74.00
2022-09-22T18:11:52.612Z,75.10
2022-09-22T18:14:19.402Z,75.80
2022-09-22T18:16:46.512Z,77.60
2022-09-22T18:19:13.330Z,78.30
2022-09-22T18:21:45.402Z,78.80
2022-09-22T18:24:18.709Z,80.80
2022-09-22T18:26:48.978Z,84.60
2022-09-22T18:29:17.283Z,87.60
2022-09-22T18:31:45.272Z,89.60
2022-09-22T18:34:12.241Z,90.30
2022-09-22T18:36:41.117Z,91.50
2022-09-22T18:39:09.300Z,95.40
2022-09-22T18:41:37.345Z,95.70
2022-09-22T18:44:09.172Z,95.80
2022-09-22T18:46:36.399Z,98.20
2022-09-22T18:49:05.248Z,98.30
2022-09-22T18:51:44.008Z,97.90
2022-09-22T18:54:15.298Z,98.60
2022-09-22T18:56:44.856Z,99.60
2022-09-22T18:59:14.364Z,99.90
2022-09-22T19:01:41.678Z,99.90
2022-09-22T19:04:17.380Z,99.90
2022-09-22T19:07:03.752Z,99.90
2022-09-22T19:09:31.022Z,99.90
2022-09-22T19:11:58.590Z,99.90
2022-09-22T19:14:25.580Z,99.90
2022-09-22T19:16:53.375Z,99.90
2022-09-22T19:19:22.732Z,99.90
2022-09-22T19:21:50.357Z,99.90
2022-09-22T19:24:21.986Z,99.90
2022-09-22T19:26:51.344Z,99.90
2022-09-22T19:29:18.848Z,99.90
2022-09-22T19:31:45.885Z,99.90
2022-09-22T19:34:13.493Z,99.90
2022-09-22T19:36:42.911Z,99.90
2022-09-22T19:39:10.139Z,99.90
2022-09-22T19:41:40.386Z,99.90
2022-09-22T19:44:08.133Z,99.90
2022-09-22T19:46:35.112Z,99.90
2022-09-22T19:49:02.145Z,99.90
2022-09-22T19:51:29.227Z,99.90
2022-09-22T19:53:56.086Z,99.90
2022-09-22T19:56:22.940Z,99.90
2022-09-22T19:58:50.814Z,99.90
2022-09-22T20:01:34.733Z,99.90
2022-09-22T20:04:02.751Z,99.90
2022-09-22T20:06:29.716Z,99.90
2022-09-22T20:09:02.697Z,99.90
2022-09-22T20:11:35.432Z,99.90
2022-09-22T20:14:20.287Z,99.90
2022-09-22T20:17:00.660Z,99.90
2022-09-22T20:19:28.437Z,99.90
2022-09-22T20:22:18.315Z,99.90
2022-09-22T20:24:57.317Z,99.90
2022-09-22T20:27:26.743Z,99.90
2022-09-22T20:29:56.968Z,99.90
2022-09-22T20:32:25.223Z,99.90
2022-09-22T20:34:52.864Z,99.90
2022-09-22T20:37:19.774Z,99.90
2022-09-22T20:39:47.073Z,99.90
2022-09-22T20:42:15.492Z,99.90
2022-09-22T20:44:42.637Z,99.90
2022-09-22T20:47:14.180Z,99.90
2022-09-22T20:49:46.965Z,99.90
2022-09-22T20:52:19.811Z,99.90
2022-09-22T20:54:46.858Z,99.90
2022-09-22T20:57:14.202Z,99.90
2022-09-22T20:59:41.538Z,99.90
2022-09-22T21:02:11.335Z,99.90
2022-09-22T21:04:38.162Z,99.90
2022-09-22T21:07:04.974Z,99.90
2022-09-22T21:09:50.282Z,99.90
2022-09-22T21:12:17.090Z,99.90
2022-09-22T21:14:45.213Z,99.90
2022-09-22T21:17:13.811Z,99.90
2022-09-22T21:19:41.028Z,99.90
2022-09-22T21:22:09.216Z,99.90
2022-09-22T21:24:36.073Z,99.90
2022-09-22T21:27:02.906Z,99.90
2022-09-22T21:29:29.828Z,99.90
2022-09-22T21:31:57.917Z,99.90
2022-09-22T21:34:25.138Z,99.90
2022-09-22T21:36:52.335Z,99.90
2022-09-22T21:39:19.294Z,99.90
2022-09-22T21:41:46.073Z,99.90
2022-09-22T21:44:12.989Z,99.90
2022-09-22T21:46:44.246Z,99.90
2022-09-22T21:49:11.549Z,99.90
2022-09-22T21:51:42.331Z,99.90
2022-09-22T21:54:18.381Z,99.90
2022-09-22T21:56:45.881Z,99.90
2022-09-22T21:59:13.481Z,99.90
2022-09-22T22:01:42.239Z,99.90
2022-09-22T22:04:10.375Z,99.90
2022-09-22T22:06:40.777Z,99.90
2022-09-22T22:09:21.697Z,99.90
2022-09-22T22:11:52.870Z,99.90
2022-09-22T22:14:20.587Z,99.90
2022-09-22T22:16:52.833Z,99.90
2022-09-22T22:19:22.559Z,99.90
2022-09-22T22:21:50.734Z,99.90
2022-09-22T22:24:41.620Z,99.90
2022-09-22T22:27:10.441Z,99.90
2022-09-22T22:29:42.051Z,99.90
2022-09-22T22:32:10.742Z,99.90
2022-09-22T22:34:38.121Z,99.90
2022-09-22T22:37:08.826Z,99.90
2022-09-22T22:39:35.746Z,99.90
2022-09-22T22:42:02.559Z,99.90
2022-09-22T22:44:29.351Z,99.90
2022-09-22T22:46:56.151Z,99.90
2022-09-22T22:49:22.922Z,99.90
2022-09-22T22:51:49.950Z,99.90
2022-09-22T22:54:16.873Z,99.90
2022-09-22T22:56:45.841Z,99.90
2022-09-22T22:59:15.819Z,99.90
2022-09-22T23:01:44.349Z,99.90
2022-09-22T23:04:11.967Z,99.90
2022-09-22T23:06:44.082Z,99.90
2022-09-22T23:09:14.884Z,99.90
2022-09-22T23:11:42.802Z,99.90
2022-09-22T23:14:12.766Z,99.90
2022-09-22T23:16:41.471Z,99.90
2022-09-22T23:19:11.409Z,99.90
2022-09-22T23:21:38.702Z,99.90
2022-09-22T23:24:06.504Z,99.90
2022-09-22T23:26:33.281Z,99.90
2022-09-22T23:29:01.546Z,99.90
2022-09-22T23:31:28.527Z,99.90
2022-09-22T23:33:55.264Z,99.90
2022-09-22T23:36:25.208Z,99.90
2022-09-22T23:38:56.861Z,99.90
2022-09-22T23:41:24.396Z,99.90
2022-09-22T23:43:51.269Z,99.90
2022-09-22T23:46:18.195Z,99.90
2022-09-22T23:48:47.511Z,99.90
2022-09-22T23:51:14.764Z,99.90
2022-09-22T23:53:41.631Z,99.90
2022-09-22T23:56:08.627Z,99.90
2022-09-22T23:58:35.761Z,99.90
